sensor_id;sensor_type;location;lat;lon;timestamp;P1;durP1;ratioP1;P2;durP2;ratioP2
70014;SDS011;57358;51.094;6.760;2024-02-26T00:02:11;5.2;;;5.7;;
70014;SDS011;57358;51.094;6.760;2024-02-26T00:07:10;4.6;;;5;;
70014;SDS011;57358;51.094;6.760;2024-02-26T00:12:09;5;;;5.5;;
70014;SDS011;57358;51.094;6.760;2024-02-26T00:17:09;4.5;;;4.8;;
70014;SDS011;57358;51.094;6.760;2024-02-26T00:22:08;4.9;;;5.3;;
70014;SDS011;57358;51.094;6.760;2024-02-26T00:27:07;5.1;;;5.6;;
70014;SDS011;57358;51.094;6.760;2024-02-26T00:32:06;4.7;;;5;;
70014;SDS011;57358;51.094;6.760;2024-02-26T00:37:06;4.7;;;5.1;;
70014;SDS011;57358;51.094;6.760;2024-02-26T00:42:05;4.8;;;5.2;;
70014;SDS011;57358;51.094;6.760;2024-02-26T00:47:04;4.9;;;5.3;;
70014;SDS011;57358;51.094;6.760;2024-02-26T00:52:04;4.9;;;5.4;;
70014;SDS011;57358;51.094;6.760;2024-02-26T00:57:03;4.8;;;5.3;;
70014;SDS011;57358;51.094;6.760;2024-02-26T01:02:02;4.9;;;6.3;;
70014;SDS011;57358;51.094;6.760;2024-02-26T01:07:01;5;;;5.4;;
70014;SDS011;57358;51.094;6.760;2024-02-26T01:12:01;4.8;;;5.2;;
70014;SDS011;57358;51.094;6.760;2024-02-26T01:17:00;4.6;;;5.1;;
70014;SDS011;57358;51.094;6.760;2024-02-26T01:21:59;4.6;;;5.1;;
70014;SDS011;57358;51.094;6.760;2024-02-26T01:26:58;4.8;;;5.2;;
70014;SDS011;57358;51.094;6.760;2024-02-26T01:31:57;4.4;;;4.8;;
70014;SDS011;57358;51.094;6.760;2024-02-26T01:36:57;4.2;;;4.6;;
70014;SDS011;57358;51.094;6.760;2024-02-26T01:41:56;4.4;;;4.8;;
70014;SDS011;57358;51.094;6.760;2024-02-26T01:46:55;4.1;;;4.5;;
70014;SDS011;57358;51.094;6.760;2024-02-26T01:51:54;4.2;;;4.5;;
70014;SDS011;57358;51.094;6.760;2024-02-26T01:56:54;4.1;;;4.5;;
70014;SDS011;57358;51.094;6.760;2024-02-26T02:01:55;4.2;;;4.6;;
70014;SDS011;57358;51.094;6.760;2024-02-26T02:06:52;4.2;;;4.5;;
70014;SDS011;57358;51.094;6.760;2024-02-26T02:11:51;4.2;;;4.6;;
70014;SDS011;57358;51.094;6.760;2024-02-26T02:16:51;4.1;;;4.5;;
70014;SDS011;57358;51.094;6.760;2024-02-26T02:21:50;4.2;;;4.5;;
70014;SDS011;57358;51.094;6.760;2024-02-26T02:26:49;4.2;;;4.5;;
70014;SDS011;57358;51.094;6.760;2024-02-26T02:31:48;4.4;;;4.8;;
70014;SDS011;57358;51.094;6.760;2024-02-26T02:36:48;4;;;4.4;;
70014;SDS011;57358;51.094;6.760;2024-02-26T02:41:46;4.2;;;4.6;;
70014;SDS011;57358;51.094;6.760;2024-02-26T02:46:46;4.3;;;4.6;;
70014;SDS011;57358;51.094;6.760;2024-02-26T02:51:45;4;;;4.2;;
70014;SDS011;57358;51.094;6.760;2024-02-26T02:56:44;3.9;;;4.1;;
70014;SDS011;57358;51.094;6.760;2024-02-26T03:01:43;4.2;;;4.5;;
70014;SDS011;57358;51.094;6.760;2024-02-26T03:06:43;4.1;;;4.4;;
70014;SDS011;57358;51.094;6.760;2024-02-26T03:11:42;4.1;;;4.4;;
70014;SDS011;57358;51.094;6.760;2024-02-26T03:16:41;4;;;4.3;;
70014;SDS011;57358;51.094;6.760;2024-02-26T03:21:40;4.1;;;4.5;;
70014;SDS011;57358;51.094;6.760;2024-02-26T03:26:39;4.3;;;4.6;;
70014;SDS011;57358;51.094;6.760;2024-02-26T03:31:39;4;;;4.2;;
70014;SDS011;57358;51.094;6.760;2024-02-26T03:36:38;4.4;;;4.8;;
70014;SDS011;57358;51.094;6.760;2024-02-26T03:41:37;4.4;;;4.8;;
70014;SDS011;57358;51.094;6.760;2024-02-26T03:46:36;4.5;;;4.9;;
70014;SDS011;57358;51.094;6.760;2024-02-26T03:51:35;4.3;;;4.7;;
70014;SDS011;57358;51.094;6.760;2024-02-26T03:56:34;4.8;;;5.3;;
70014;SDS011;57358;51.094;6.760;2024-02-26T04:01:34;4.2;;;4.5;;
70014;SDS011;57358;51.094;6.760;2024-02-26T04:06:33;4.6;;;4.9;;
70014;SDS011;57358;51.094;6.760;2024-02-26T04:11:32;4.2;;;4.9;;
70014;SDS011;57358;51.094;6.760;2024-02-26T04:16:31;4.6;;;5;;
70014;SDS011;57358;51.094;6.760;2024-02-26T04:21:30;4.6;;;4.9;;
70014;SDS011;57358;51.094;6.760;2024-02-26T04:26:30;4.3;;;4.6;;
70014;SDS011;57358;51.094;6.760;2024-02-26T04:31:29;4.2;;;4.5;;
70014;SDS011;57358;51.094;6.760;2024-02-26T04:36:28;4.5;;;4.9;;
70014;SDS011;57358;51.094;6.760;2024-02-26T04:41:27;4.4;;;4.7;;
70014;SDS011;57358;51.094;6.760;2024-02-26T04:46:26;4.8;;;5.3;;
70014;SDS011;57358;51.094;6.760;2024-02-26T04:51:26;4.2;;;4.5;;
70014;SDS011;57358;51.094;6.760;2024-02-26T04:56:25;4.8;;;5.3;;
70014;SDS011;57358;51.094;6.760;2024-02-26T05:01:24;4.3;;;4.8;;
70014;SDS011;57358;51.094;6.760;2024-02-26T05:06:23;4.8;;;5.2;;
70014;SDS011;57358;51.094;6.760;2024-02-26T05:11:22;4.5;;;4.9;;
70014;SDS011;57358;51.094;6.760;2024-02-26T05:16:22;4.7;;;5.1;;
70014;SDS011;57358;51.094;6.760;2024-02-26T05:21:21;4.5;;;5;;
70014;SDS011;57358;51.094;6.760;2024-02-26T05:26:20;4.8;;;5.3;;
70014;SDS011;57358;51.094;6.760;2024-02-26T05:31:19;4.4;;;5.2;;
70014;SDS011;57358;51.094;6.760;2024-02-26T05:36:18;4.8;;;5.3;;
70014;SDS011;57358;51.094;6.760;2024-02-26T05:41:18;4.7;;;5.5;;
70014;SDS011;57358;51.094;6.760;2024-02-26T05:46:17;5.1;;;6.6;;
70014;SDS011;57358;51.094;6.760;2024-02-26T05:51:16;4.8;;;5.3;;
70014;SDS011;57358;51.094;6.760;2024-02-26T05:56:15;5.2;;;5.6;;
70014;SDS011;57358;51.094;6.760;2024-02-26T06:01:15;5;;;5.5;;
70014;SDS011;57358;51.094;6.760;2024-02-26T06:06:13;4.9;;;5.4;;
70014;SDS011;57358;51.094;6.760;2024-02-26T06:11:13;5.6;;;6.2;;
70014;SDS011;57358;51.094;6.760;2024-02-26T06:16:12;5.7;;;6.3;;
70014;SDS011;57358;51.094;6.760;2024-02-26T06:21:11;5.3;;;6.6;;
70014;SDS011;57358;51.094;6.760;2024-02-26T06:26:10;5.8;;;10.3;;
70014;SDS011;57358;51.094;6.760;2024-02-26T06:31:09;5.3;;;8.9;;
70014;SDS011;57358;51.094;6.760;2024-02-26T06:36:08;6;;;7.2;;
70014;SDS011;57358;51.094;6.760;2024-02-26T06:41:08;5.6;;;6.2;;
70014;SDS011;57358;51.094;6.760;2024-02-26T06:46:07;5.5;;;6.7;;
70014;SDS011;57358;51.094;6.760;2024-02-26T06:51:06;5.5;;;7.2;;
70014;SDS011;57358;51.094;6.760;2024-02-26T06:56:05;5.6;;;6.6;;
70014;SDS011;57358;51.094;6.760;2024-02-26T07:01:04;5.7;;;7.7;;
70014;SDS011;57358;51.094;6.760;2024-02-26T07:06:04;5.7;;;6.4;;
70014;SDS011;57358;51.094;6.760;2024-02-26T07:11:03;5.7;;;6.2;;
70014;SDS011;57358;51.094;6.760;2024-02-26T07:16:02;6;;;8.6;;
70014;SDS011;57358;51.094;6.760;2024-02-26T07:21:01;6.2;;;8;;
70014;SDS011;57358;51.094;6.760;2024-02-26T07:26:00;6.2;;;7.3;;
70014;SDS011;57358;51.094;6.760;2024-02-26T07:31:00;6.5;;;8.1;;
70014;SDS011;57358;51.094;6.760;2024-02-26T07:35:59;6.5;;;9.5;;
70014;SDS011;57358;51.094;6.760;2024-02-26T07:40:58;6.4;;;9.3;;
70014;SDS011;57358;51.094;6.760;2024-02-26T07:45:57;6.3;;;7.4;;
70014;SDS011;57358;51.094;6.760;2024-02-26T07:50:56;6.5;;;7.1;;
70014;SDS011;57358;51.094;6.760;2024-02-26T07:55:55;6;;;8.1;;
70014;SDS011;57358;51.094;6.760;2024-02-26T08:00:54;5.7;;;6.3;;
70014;SDS011;57358;51.094;6.760;2024-02-26T08:05:54;5.2;;;6.3;;
70014;SDS011;57358;51.094;6.760;2024-02-26T08:10:53;5.6;;;6.2;;
70014;SDS011;57358;51.094;6.760;2024-02-26T08:15:52;5.5;;;6.7;;
70014;SDS011;57358;51.094;6.760;2024-02-26T08:20:51;5.3;;;7.5;;
70014;SDS011;57358;51.094;6.760;2024-02-26T08:25:50;5.1;;;6.2;;
70014;SDS011;57358;51.094;6.760;2024-02-26T08:30:50;5.5;;;7.2;;
70014;SDS011;57358;51.094;6.760;2024-02-26T08:35:49;5.2;;;6.3;;
70014;SDS011;57358;51.094;6.760;2024-02-26T08:40:48;4.8;;;5.3;;
70014;SDS011;57358;51.094;6.760;2024-02-26T08:45:47;5;;;6.4;;
70014;SDS011;57358;51.094;6.760;2024-02-26T08:50:46;5.1;;;5.7;;
70014;SDS011;57358;51.094;6.760;2024-02-26T08:55:45;5.2;;;6.3;;
70014;SDS011;57358;51.094;6.760;2024-02-26T09:00:45;5.2;;;5.8;;
70014;SDS011;57358;51.094;6.760;2024-02-26T09:05:44;5;;;5.5;;
70014;SDS011;57358;51.094;6.760;2024-02-26T09:10:43;4.7;;;5.2;;
70014;SDS011;57358;51.094;6.760;2024-02-26T09:15:42;4.9;;;5.4;;
70014;SDS011;57358;51.094;6.760;2024-02-26T09:20:41;4.7;;;5.2;;
70014;SDS011;57358;51.094;6.760;2024-02-26T09:25:40;4.5;;;4.9;;
70014;SDS011;57358;51.094;6.760;2024-02-26T09:30:40;5;;;5.5;;
70014;SDS011;57358;51.094;6.760;2024-02-26T09:35:39;4.9;;;6.6;;
70014;SDS011;57358;51.094;6.760;2024-02-26T09:40:39;4.7;;;5.2;;
70014;SDS011;57358;51.094;6.760;2024-02-26T09:45:37;4.5;;;5;;
70014;SDS011;57358;51.094;6.760;2024-02-26T09:50:36;5.4;;;5.9;;
70014;SDS011;57358;51.094;6.760;2024-02-26T09:55:35;5.1;;;6.6;;
70014;SDS011;57358;51.094;6.760;2024-02-26T10:00:37;5.4;;;6;;
70014;SDS011;57358;51.094;6.760;2024-02-26T10:05:34;5.2;;;5.8;;
70014;SDS011;57358;51.094;6.760;2024-02-26T10:10:33;5.2;;;5.7;;
70014;SDS011;57358;51.094;6.760;2024-02-26T10:15:32;5.1;;;5.6;;
70014;SDS011;57358;51.094;6.760;2024-02-26T10:20:32;5.5;;;6;;
70014;SDS011;57358;51.094;6.760;2024-02-26T10:25:31;5;;;5.5;;
70014;SDS011;57358;51.094;6.760;2024-02-26T10:30:30;5.6;;;6.1;;
70014;SDS011;57358;51.094;6.760;2024-02-26T10:35:29;5.4;;;8;;
70014;SDS011;57358;51.094;6.760;2024-02-26T10:40:28;5.3;;;5.8;;
70014;SDS011;57358;51.094;6.760;2024-02-26T10:45:27;5;;;6.3;;
70014;SDS011;57358;51.094;6.760;2024-02-26T10:50:27;5.8;;;6.4;;
70014;SDS011;57358;51.094;6.760;2024-02-26T10:55:26;5.1;;;6.4;;
70014;SDS011;57358;51.094;6.760;2024-02-26T11:00:25;5.8;;;6.5;;
70014;SDS011;57358;51.094;6.760;2024-02-26T11:05:24;5.3;;;6.6;;
70014;SDS011;57358;51.094;6.760;2024-02-26T11:10:23;5.4;;;8.2;;
70014;SDS011;57358;51.094;6.760;2024-02-26T11:15:23;5.3;;;6;;
70014;SDS011;57358;51.094;6.760;2024-02-26T11:20:22;6.2;;;12.2;;
70014;SDS011;57358;51.094;6.760;2024-02-26T11:25:21;5.3;;;7.6;;
70014;SDS011;57358;51.094;6.760;2024-02-26T11:30:20;6.1;;;7.3;;
70014;SDS011;57358;51.094;6.760;2024-02-26T11:35:19;5.6;;;6.2;;
70014;SDS011;57358;51.094;6.760;2024-02-26T11:40:18;5.9;;;8;;
70014;SDS011;57358;51.094;6.760;2024-02-26T11:45:50;5.6;;;6.2;;
70014;SDS011;57358;51.094;6.760;2024-02-26T11:50:32;6.1;;;6.7;;
70014;SDS011;57358;51.094;6.760;2024-02-26T11:55:18;6.3;;;8.9;;
70014;SDS011;57358;51.094;6.760;2024-02-26T12:00:15;7.3;;;11.9;;
70014;SDS011;57358;51.094;6.760;2024-02-26T12:05:15;7.7;;;11;;
70014;SDS011;57358;51.094;6.760;2024-02-26T12:10:15;7.4;;;10.1;;
70014;SDS011;57358;51.094;6.760;2024-02-26T12:15:13;8;;;11.9;;
70014;SDS011;57358;51.094;6.760;2024-02-26T12:20:12;8.1;;;9.8;;
70014;SDS011;57358;51.094;6.760;2024-02-26T12:25:11;7.4;;;11.9;;
70014;SDS011;57358;51.094;6.760;2024-02-26T12:30:11;8.5;;;10.9;;
70014;SDS011;57358;51.094;6.760;2024-02-26T12:35:09;7.6;;;8.9;;
70014;SDS011;57358;51.094;6.760;2024-02-26T12:40:09;8.5;;;12.2;;
70014;SDS011;57358;51.094;6.760;2024-02-26T12:45:08;9;;;12.5;;
70014;SDS011;57358;51.094;6.760;2024-02-26T12:50:08;8.8;;;13;;
70014;SDS011;57358;51.094;6.760;2024-02-26T12:55:06;9.3;;;17.1;;
70014;SDS011;57358;51.094;6.760;2024-02-26T13:00:06;9.4;;;13.2;;
70014;SDS011;57358;51.094;6.760;2024-02-26T13:05:05;9.2;;;14.1;;
70014;SDS011;57358;51.094;6.760;2024-02-26T13:10:04;10.4;;;16.3;;
70014;SDS011;57358;51.094;6.760;2024-02-26T13:15:03;11;;;16.8;;
70014;SDS011;57358;51.094;6.760;2024-02-26T13:20:02;11.7;;;17.4;;
70014;SDS011;57358;51.094;6.760;2024-02-26T13:25:01;12.4;;;22.6;;
70014;SDS011;57358;51.094;6.760;2024-02-26T13:30:03;12.6;;;24;;
70014;SDS011;57358;51.094;6.760;2024-02-26T13:35:07;13.2;;;21.6;;
70014;SDS011;57358;51.094;6.760;2024-02-26T13:39:59;13.4;;;21.2;;
70014;SDS011;57358;51.094;6.760;2024-02-26T13:44:58;13.6;;;22;;
70014;SDS011;57358;51.094;6.760;2024-02-26T13:49:57;12.1;;;18.7;;
70014;SDS011;57358;51.094;6.760;2024-02-26T13:54:57;12.5;;;19.9;;
70014;SDS011;57358;51.094;6.760;2024-02-26T13:59:56;11.9;;;19.4;;
70014;SDS011;57358;51.094;6.760;2024-02-26T14:04:55;12.7;;;17.3;;
70014;SDS011;57358;51.094;6.760;2024-02-26T14:09:54;13.2;;;22;;
70014;SDS011;57358;51.094;6.760;2024-02-26T14:14:54;13.8;;;21.6;;
70014;SDS011;57358;51.094;6.760;2024-02-26T14:19:53;14.4;;;23.3;;
70014;SDS011;57358;51.094;6.760;2024-02-26T14:24:52;14.4;;;24.4;;
70014;SDS011;57358;51.094;6.760;2024-02-26T14:29:51;13.8;;;21.6;;
70014;SDS011;57358;51.094;6.760;2024-02-26T14:34:51;14.9;;;29.5;;
70014;SDS011;57358;51.094;6.760;2024-02-26T14:39:50;14.5;;;22.7;;
70014;SDS011;57358;51.094;6.760;2024-02-26T14:44:49;14.7;;;23.3;;
70014;SDS011;57358;51.094;6.760;2024-02-26T14:49:48;14.1;;;21.2;;
70014;SDS011;57358;51.094;6.760;2024-02-26T14:54:48;14.6;;;25.4;;
70014;SDS011;57358;51.094;6.760;2024-02-26T14:59:47;13.7;;;21.5;;
70014;SDS011;57358;51.094;6.760;2024-02-26T15:04:46;12.9;;;18.2;;
70014;SDS011;57358;51.094;6.760;2024-02-26T15:09:46;12.4;;;18.3;;
70014;SDS011;57358;51.094;6.760;2024-02-26T15:14:45;12.1;;;16.1;;
70014;SDS011;57358;51.094;6.760;2024-02-26T15:19:44;11.6;;;15.8;;
70014;SDS011;57358;51.094;6.760;2024-02-26T15:24:43;11.6;;;17.7;;
70014;SDS011;57358;51.094;6.760;2024-02-26T15:29:43;11.5;;;14.9;;
70014;SDS011;57358;51.094;6.760;2024-02-26T15:34:42;11;;;15.4;;
70014;SDS011;57358;51.094;6.760;2024-02-26T15:39:41;11.5;;;16;;
70014;SDS011;57358;51.094;6.760;2024-02-26T15:44:41;10.7;;;15.6;;
70014;SDS011;57358;51.094;6.760;2024-02-26T15:49:40;12.1;;;15;;
70014;SDS011;57358;51.094;6.760;2024-02-26T15:54:39;21.9;;;32.5;;
70014;SDS011;57358;51.094;6.760;2024-02-26T15:59:38;19.1;;;35.2;;
70014;SDS011;57358;51.094;6.760;2024-02-26T16:04:38;14.2;;;25.3;;
70014;SDS011;57358;51.094;6.760;2024-02-26T16:09:37;13.9;;;21.3;;
70014;SDS011;57358;51.094;6.760;2024-02-26T16:14:39;13;;;19.3;;
70014;SDS011;57358;51.094;6.760;2024-02-26T16:19:35;11.8;;;17.8;;
70014;SDS011;57358;51.094;6.760;2024-02-26T16:24:35;12.8;;;21.2;;
70014;SDS011;57358;51.094;6.760;2024-02-26T16:29:34;11.7;;;17.3;;
70014;SDS011;57358;51.094;6.760;2024-02-26T16:34:33;11.2;;;16.6;;
70014;SDS011;57358;51.094;6.760;2024-02-26T16:39:34;10.8;;;17.9;;
70014;SDS011;57358;51.094;6.760;2024-02-26T16:44:33;9.9;;;13;;
70014;SDS011;57358;51.094;6.760;2024-02-26T16:49:31;8.9;;;12.4;;
70014;SDS011;57358;51.094;6.760;2024-02-26T16:54:30;15.2;;;33.5;;
70014;SDS011;57358;51.094;6.760;2024-02-26T16:59:29;9.9;;;13;;
70014;SDS011;57358;51.094;6.760;2024-02-26T17:04:28;9.8;;;14;;
70014;SDS011;57358;51.094;6.760;2024-02-26T17:09:28;9.5;;;12.1;;
70014;SDS011;57358;51.094;6.760;2024-02-26T17:14:27;8.5;;;12.8;;
70014;SDS011;57358;51.094;6.760;2024-02-26T17:19:26;7.8;;;9.8;;
70014;SDS011;57358;51.094;6.760;2024-02-26T17:24:25;8;;;10.5;;
70014;SDS011;57358;51.094;6.760;2024-02-26T17:29:25;7.8;;;8.9;;
70014;SDS011;57358;51.094;6.760;2024-02-26T17:34:24;7.7;;;8.6;;
70014;SDS011;57358;51.094;6.760;2024-02-26T17:39:23;7.6;;;9.9;;
70014;SDS011;57358;51.094;6.760;2024-02-26T17:44:22;8.2;;;9.7;;
70014;SDS011;57358;51.094;6.760;2024-02-26T17:49:22;7.6;;;11.1;;
70014;SDS011;57358;51.094;6.760;2024-02-26T17:54:21;8;;;11.4;;
70014;SDS011;57358;51.094;6.760;2024-02-26T17:59:20;8;;;9;;
70014;SDS011;57358;51.094;6.760;2024-02-26T18:04:19;7.7;;;9.4;;
70014;SDS011;57358;51.094;6.760;2024-02-26T18:09:19;7.2;;;8.5;;
70014;SDS011;57358;51.094;6.760;2024-02-26T18:14:18;7.6;;;11;;
70014;SDS011;57358;51.094;6.760;2024-02-26T18:19:17;8;;;10.3;;
70014;SDS011;57358;51.094;6.760;2024-02-26T18:24:17;8.3;;;9.7;;
70014;SDS011;57358;51.094;6.760;2024-02-26T18:29:16;8;;;9.6;;
70014;SDS011;57358;51.094;6.760;2024-02-26T18:34:15;8.1;;;10.1;;
70014;SDS011;57358;51.094;6.760;2024-02-26T18:39:14;7.9;;;10.7;;
70014;SDS011;57358;51.094;6.760;2024-02-26T18:44:13;8;;;8.9;;
70014;SDS011;57358;51.094;6.760;2024-02-26T18:49:13;8;;;10.4;;
70014;SDS011;57358;51.094;6.760;2024-02-26T18:54:12;8.7;;;10.1;;
70014;SDS011;57358;51.094;6.760;2024-02-26T18:59:11;7.4;;;8.3;;
70014;SDS011;57358;51.094;6.760;2024-02-26T19:04:10;7.6;;;9.6;;
70014;SDS011;57358;51.094;6.760;2024-02-26T19:09:09;7.5;;;8.3;;
70014;SDS011;57358;51.094;6.760;2024-02-26T19:14:09;7.2;;;8;;
70014;SDS011;57358;51.094;6.760;2024-02-26T19:19:08;7.9;;;9.9;;
70014;SDS011;57358;51.094;6.760;2024-02-26T19:24:07;7;;;9;;
70014;SDS011;57358;51.094;6.760;2024-02-26T19:29:06;6.8;;;7.8;;
70014;SDS011;57358;51.094;6.760;2024-02-26T19:34:05;10;;;12.3;;
70014;SDS011;57358;51.094;6.760;2024-02-26T19:39:05;7.3;;;10;;
70014;SDS011;57358;51.094;6.760;2024-02-26T19:44:04;6.6;;;7.3;;
70014;SDS011;57358;51.094;6.760;2024-02-26T19:49:03;7.3;;;8.1;;
70014;SDS011;57358;51.094;6.760;2024-02-26T19:54:02;7;;;7.8;;
70014;SDS011;57358;51.094;6.760;2024-02-26T19:59:02;7.1;;;9.6;;
70014;SDS011;57358;51.094;6.760;2024-02-26T20:04:01;7;;;7.9;;
70014;SDS011;57358;51.094;6.760;2024-02-26T20:09:00;7;;;7.9;;
70014;SDS011;57358;51.094;6.760;2024-02-26T20:13:59;7.6;;;8.4;;
70014;SDS011;57358;51.094;6.760;2024-02-26T20:18:59;7.8;;;9.4;;
70014;SDS011;57358;51.094;6.760;2024-02-26T20:23:58;7.6;;;9;;
70014;SDS011;57358;51.094;6.760;2024-02-26T20:28:57;8.3;;;10.7;;
70014;SDS011;57358;51.094;6.760;2024-02-26T20:33:56;9.1;;;10.2;;
70014;SDS011;57358;51.094;6.760;2024-02-26T20:38:56;9;;;12.9;;
70014;SDS011;57358;51.094;6.760;2024-02-26T20:43:55;10;;;13;;
70014;SDS011;57358;51.094;6.760;2024-02-26T20:48:54;9.5;;;12.4;;
70014;SDS011;57358;51.094;6.760;2024-02-26T20:53:53;10.8;;;14.7;;
70014;SDS011;57358;51.094;6.760;2024-02-26T20:58:53;11.1;;;13.5;;
70014;SDS011;57358;51.094;6.760;2024-02-26T21:03:52;11.3;;;17.4;;
70014;SDS011;57358;51.094;6.760;2024-02-26T21:08:51;11.9;;;17.9;;
70014;SDS011;57358;51.094;6.760;2024-02-26T21:13:50;12.6;;;19.2;;
70014;SDS011;57358;51.094;6.760;2024-02-26T21:18:49;12.7;;;18.2;;
70014;SDS011;57358;51.094;6.760;2024-02-26T21:23:49;13.2;;;20.2;;
70014;SDS011;57358;51.094;6.760;2024-02-26T21:28:48;13.1;;;22.4;;
70014;SDS011;57358;51.094;6.760;2024-02-26T21:33:47;13.3;;;19.8;;
70014;SDS011;57358;51.094;6.760;2024-02-26T21:38:46;13.4;;;23.1;;
70014;SDS011;57358;51.094;6.760;2024-02-26T21:43:46;13.5;;;20.3;;
70014;SDS011;57358;51.094;6.760;2024-02-26T21:48:45;13.6;;;19.4;;
70014;SDS011;57358;51.094;6.760;2024-02-26T21:53:44;13.4;;;21.4;;
70014;SDS011;57358;51.094;6.760;2024-02-26T21:58:43;13.1;;;19.1;;
70014;SDS011;57358;51.094;6.760;2024-02-26T22:03:43;13.9;;;22.4;;
70014;SDS011;57358;51.094;6.760;2024-02-26T22:08:42;13.6;;;21.1;;
70014;SDS011;57358;51.094;6.760;2024-02-26T22:13:41;13.8;;;22.5;;
70014;SDS011;57358;51.094;6.760;2024-02-26T22:18:41;15.5;;;24.9;;
70014;SDS011;57358;51.094;6.760;2024-02-26T22:23:40;16.8;;;27.6;;
70014;SDS011;57358;51.094;6.760;2024-02-26T22:28:39;17;;;29.3;;
70014;SDS011;57358;51.094;6.760;2024-02-26T22:33:38;17.5;;;31;;
70014;SDS011;57358;51.094;6.760;2024-02-26T22:38:37;18.6;;;32.4;;
70014;SDS011;57358;51.094;6.760;2024-02-26T22:43:37;19.8;;;33.7;;
70014;SDS011;57358;51.094;6.760;2024-02-26T22:48:36;20.7;;;34;;
70014;SDS011;57358;51.094;6.760;2024-02-26T22:53:35;22.7;;;37.7;;
70014;SDS011;57358;51.094;6.760;2024-02-26T22:58:34;23.4;;;42.4;;
70014;SDS011;57358;51.094;6.760;2024-02-26T23:03:33;22.8;;;39.1;;
70014;SDS011;57358;51.094;6.760;2024-02-26T23:08:32;26.2;;;46.4;;
70014;SDS011;57358;51.094;6.760;2024-02-26T23:13:32;25.8;;;47.5;;
70014;SDS011;57358;51.094;6.760;2024-02-26T23:18:31;26.5;;;47.8;;
70014;SDS011;57358;51.094;6.760;2024-02-26T23:23:30;27.3;;;49.1;;
70014;SDS011;57358;51.094;6.760;2024-02-26T23:28:29;27.6;;;49.5;;
70014;SDS011;57358;51.094;6.760;2024-02-26T23:33:28;27.7;;;50.1;;
70014;SDS011;57358;51.094;6.760;2024-02-26T23:38:28;27.7;;;48.9;;
70014;SDS011;57358;51.094;6.760;2024-02-26T23:43:27;28.7;;;52.6;;
70014;SDS011;57358;51.094;6.760;2024-02-26T23:48:26;30.1;;;56.6;;
70014;SDS011;57358;51.094;6.760;2024-02-26T23:53:25;27.7;;;51;;
70014;SDS011;57358;51.094;6.760;2024-02-26T23:58:24;30.2;;;57;;
